Sunny Clover — H3SY — position and weather

sailwx.info

Track history (hours):
 
Tides and Currents Weather Stations Pressure Air Temp Water Temp Dewpoint Dewpoint Depression Visibility Wind Speed Wind Dir Waves Ship Positions

Sunny Clover

Last reported at 2016-Jun-28 19:32 UTC. Time now 2016-Jun-29 14:43 UTC.
Position N 20°10' E 110°06'.

Length 137 m; draft 6.9 m.

Type: Cargo ship. MMSI: 374431000.

Date/timePositionNaut miles runAvg speedWind from/ knotsBaromVisibWave heightAir tempDewpointWater temp
2016-Jun-28 19:32N 20°10' E 110°06'10 9.8
2016-Jun-28 18:31N 20°12' E 110°16'1010.1
2016-Jun-28 17:33N 20°13' E 110°27'24014.8
2016-Jun-28 01:22N 22°12' E 114°10'8 9.7
2016-Jun-28 00:33N 22°19' E 114°06'2 1.4
2016-Jun-27 23:22N 22°20' E 114°08'0 0.0
2016-Jun-27 22:28N 22°20' E 114°08'0 0.0
2016-Jun-27 21:31N 22°20' E 114°08'0 0.0
2016-Jun-27 20:31N 22°20' E 114°08'0 0.0
2016-Jun-27 19:28N 22°20' E 114°08'0 0.0
2016-Jun-27 18:31N 22°20' E 114°08'0 0.0
2016-Jun-27 17:25N 22°20' E 114°08'0 0.0
2016-Jun-27 16:25N 22°20' E 114°08'2 2.1
2016-Jun-27 15:33N 22°19' E 114°06'16 7.8
2016-Jun-27 13:33N 22°08' E 114°19'1010.6
2016-Jun-27 12:33N 22°10' E 114°30'14315.2
2016-Jun-27 03:09N 22°59' E 116°55'1317.2
2016-Jun-27 02:25N 23°06' E 117°07'8617.5
2016-Jun-26 21:30N 23°55' E 118°24'1917.2
2016-Jun-26 20:23N 24°06' E 118°42'1717.2
2016-Jun-26 19:25N 24°15' E 118°57'1717.0
2016-Jun-26 18:24N 24°24' E 119°13'1516.5
2016-Jun-26 17:31N 24°33' E 119°26'2116.1
2016-Jun-26 16:11N 24°44' E 119°46'  
Track history (hours):
 
Tides and Currents Weather Stations Pressure Air Temp Water Temp Dewpoint Dewpoint Depression Visibility Wind Speed Wind Dir Waves Ship Positions

Sunny Clover

Last reported at 2016-Jun-28 19:32 UTC. Time now 2016-Jun-29 14:43 UTC.
Position N 20°10' E 110°06'.

Length 137 m; draft 6.9 m.

Type: Cargo ship. MMSI: 374431000.

Date/timePositionNaut miles runAvg speedWind from/ knotsBaromVisibWave heightAir tempDewpointWater temp
2016-Jun-28 19:32N 20°10' E 110°06'10 9.8
2016-Jun-28 18:31N 20°12' E 110°16'1010.1
2016-Jun-28 17:33N 20°13' E 110°27'24014.8
2016-Jun-28 01:22N 22°12' E 114°10'8 9.7
2016-Jun-28 00:33N 22°19' E 114°06'2 1.4
2016-Jun-27 23:22N 22°20' E 114°08'0 0.0
2016-Jun-27 22:28N 22°20' E 114°08'0 0.0
2016-Jun-27 21:31N 22°20' E 114°08'0 0.0
2016-Jun-27 20:31N 22°20' E 114°08'0 0.0
2016-Jun-27 19:28N 22°20' E 114°08'0 0.0
2016-Jun-27 18:31N 22°20' E 114°08'0 0.0
2016-Jun-27 17:25N 22°20' E 114°08'0 0.0
2016-Jun-27 16:25N 22°20' E 114°08'2 2.1
2016-Jun-27 15:33N 22°19' E 114°06'16 7.8
2016-Jun-27 13:33N 22°08' E 114°19'1010.6
2016-Jun-27 12:33N 22°10' E 114°30'14315.2
2016-Jun-27 03:09N 22°59' E 116°55'1317.2
2016-Jun-27 02:25N 23°06' E 117°07'8617.5
2016-Jun-26 21:30N 23°55' E 118°24'1917.2
2016-Jun-26 20:23N 24°06' E 118°42'1717.2
2016-Jun-26 19:25N 24°15' E 118°57'1717.0
2016-Jun-26 18:24N 24°24' E 119°13'1516.5
2016-Jun-26 17:31N 24°33' E 119°26'2116.1
2016-Jun-26 16:11N 24°44' E 119°46'  

Dump ship's entire track history